Aérodrome :
LOGIN :

S'inscrire | Disclaimer

   EN    FR    IT 

 










Légende :    VFR   VFR Marginal   IFR   IFR Intensif   IFR Très Intensif
Visi : 
Plafond : 
>= 8 km
>= 3000ft
5 à 8 km
1000 à 3000 ft
1500m à 5 km
500 à 1000 ft
800 à 1500m
200 à 500 ft
< 800m
< 200 ft
Symboles :   Orages  Brouillard  Fortes neiges  Fortes précipitations  Vent > 20 kt
SIGMETs :   Divers  Orages  Givrage  Turbulence  Onde Orograph.  Cendres Volcan.






- Altitude de l'aérodrome : -15 ft
- Code IATA : RTM


EHRD - Rotterdam Zestienhoven

DERNIER METAR :
  • 151555Z AUTO 22018KT 180V250 9999 NSC 07/03 Q1000 NOSIG

METARs EXPIRÉS :
  • 151525Z AUTO 22021G31KT 190V250 9999 NSC 08/04 Q1000 NOSIG
  • 151455Z AUTO 22020G30KT 180V250 9999 NSC 08/04 Q0999 NOSIG
  • 151425Z AUTO 22018KT 180V250 9999 FEW015CB SCT044 08/05 Q0999 NOSIG
  • 151355Z AUTO 23022G32KT 190V250 9999 BKN022 OVC027 09/05 Q0999 REDZ TEMPO 6000 SHRA SCT020CB
  • 151325Z AUTO 22021KT 9999 FEW024 SCT036 BKN041 09/05 Q0998 TEMPO 23023G35KT 6000 SHRA SCT020CB

TAF TAF EHRD
Valide du 15 à 12h jusqu'au 16 à 18h UTC


151121Z 1512/1618 22018G28KT 9999 FEW025
TEMPO 1512/1521 24023G34KT 5000 SHRA TSRAGS SCT015 SCT020CB
BECMG 1519/1522 21015KT
BECMG 1602/1605 18011KT
PROB30
TEMPO 1608/1612 7000 -RA BKN007
BECMG 1611/1614 7000 -RADZ SCT007 BKN040
PROB40
TEMPO 1612/1618 4500 DZRA BKN007
BECMG 1614/1617 14005KT



MET'MAP, la Météo Aéronautique d'un coup d'oeil ! - Copyright ORBIFLY Décembre 2007 - Disclaimer

ORBIFLY MET'MAP TEAM :

Programmation & Développement : Alexandra Zaïnal
Sur une idée originale de : Baudouin d'Aumeries
Assistance à la programmation : Marc-Olivier Méhu
Soutien technique & logistique : Manuel Goepfert

Contact : metmap@orbifly.com




SOURCES & CREDITS :

   NOAA